createdAt,value
2018-03-04T00:00:13.869Z,98624.13
2018-03-04T00:02:41.286Z,98628.67
2018-03-04T00:05:08.707Z,98626.26
2018-03-04T00:07:36.125Z,98616.63
2018-03-04T00:10:03.553Z,98613.81
2018-03-04T00:12:30.977Z,98605.41
2018-03-04T00:14:58.403Z,98608.86
2018-03-04T00:17:25.825Z,98615.41
2018-03-04T00:19:53.245Z,98614.62
2018-03-04T00:22:20.751Z,98614.13
2018-03-04T00:24:48.176Z,98616.73
2018-03-04T00:27:15.590Z,98620.48
2018-03-04T00:29:43.043Z,98611.39
2018-03-04T00:32:10.471Z,98611.70
2018-03-04T00:34:37.886Z,98616.64
2018-03-04T00:37:05.325Z,98617.55
2018-03-04T00:39:32.965Z,98618.45
2018-03-04T00:42:00.412Z,98624.13
2018-03-04T00:44:27.834Z,98620.18
2018-03-04T00:46:55.257Z,98616.75
2018-03-04T00:49:22.677Z,98618.56
2018-03-04T00:51:50.093Z,98616.13
2018-03-04T00:54:17.516Z,98615.94
2018-03-04T00:56:44.929Z,98620.60
2018-03-04T00:59:12.358Z,98615.11
2018-03-04T01:01:39.774Z,98618.75
2018-03-04T01:04:07.206Z,98618.98
2018-03-04T01:06:34.625Z,98617.14
2018-03-04T01:09:02.054Z,98631.30
2018-03-04T01:11:29.475Z,98631.61
2018-03-04T01:13:56.894Z,98634.75
2018-03-04T01:16:24.314Z,98636.08
2018-03-04T01:18:51.742Z,98628.48
2018-03-04T01:21:19.209Z,98615.34
2018-03-04T01:23:46.617Z,98618.88
2018-03-04T01:26:14.047Z,98610.88
2018-03-04T01:28:41.469Z,98623.23
2018-03-04T01:31:08.893Z,98625.33
2018-03-04T01:33:36.318Z,98621.20
2018-03-04T01:36:03.745Z,98615.11
2018-03-04T01:38:31.166Z,98612.48
2018-03-04T01:40:58.590Z,98603.08
2018-03-04T01:43:26.013Z,98590.13
2018-03-04T01:45:53.438Z,98594.89
2018-03-04T01:48:20.930Z,98600.03
2018-03-04T01:50:48.354Z,98592.84
2018-03-04T01:53:15.769Z,98592.25
2018-03-04T01:55:43.194Z,98593.37
2018-03-04T01:58:10.618Z,98583.56
2018-03-04T02:00:38.434Z,98580.94
2018-03-04T02:03:05.854Z,98581.95
2018-03-04T02:05:33.277Z,98583.46
2018-03-04T02:08:00.697Z,98585.78
2018-03-04T02:10:28.113Z,98585.49
2018-03-04T02:12:55.541Z,98583.16
2018-03-04T02:15:22.958Z,98579.82
2018-03-04T02:17:50.386Z,98581.52
2018-03-04T02:20:17.819Z,98582.11
2018-03-04T02:22:45.243Z,98586.77
2018-03-04T02:25:12.657Z,98588.39
2018-03-04T02:27:40.090Z,98584.55
2018-03-04T02:30:07.511Z,98573.84
2018-03-04T02:32:34.931Z,98578.50
2018-03-04T02:35:02.355Z,98571.28
2018-03-04T02:37:29.786Z,98580.72
2018-03-04T02:39:57.220Z,98588.02
2018-03-04T02:42:24.635Z,98575.76
2018-03-04T02:44:52.062Z,98577.56
2018-03-04T02:47:19.479Z,98575.94
2018-03-04T02:49:46.910Z,98574.02
2018-03-04T02:52:14.337Z,98574.43
2018-03-04T02:54:41.779Z,98567.02
2018-03-04T02:57:09.315Z,98560.03
2018-03-04T02:59:36.730Z,98569.06
2018-03-04T03:02:04.152Z,98561.34
2018-03-04T03:04:31.575Z,98567.85
2018-03-04T03:06:59.102Z,98569.88
2018-03-04T03:09:26.531Z,98561.05
2018-03-04T03:11:54.066Z,98559.66
2018-03-04T03:14:21.489Z,98559.72
2018-03-04T03:16:48.909Z,98545.45
2018-03-04T03:19:16.334Z,98547.28
2018-03-04T03:21:44.096Z,98546.98
2018-03-04T03:24:11.509Z,98539.27
2018-03-04T03:26:38.934Z,98533.71
2018-03-04T03:29:06.360Z,98546.68
2018-03-04T03:31:33.790Z,98529.69
2018-03-04T03:34:01.215Z,98527.95
2018-03-04T03:36:28.637Z,98523.72
2018-03-04T03:38:56.061Z,98522.11
2018-03-04T03:41:23.483Z,98526.66
2018-03-04T03:43:50.907Z,98524.13
2018-03-04T03:46:18.330Z,98523.17
2018-03-04T03:48:45.762Z,98522.98
2018-03-04T03:51:13.182Z,98518.75
2018-03-04T03:53:40.593Z,98519.15
2018-03-04T03:56:08.018Z,98514.50
2018-03-04T03:58:35.438Z,98521.25
2018-03-04T04:01:02.878Z,98512.55
2018-03-04T04:03:30.302Z,98514.96
2018-03-04T04:05:57.738Z,98515.98
2018-03-04T04:08:25.157Z,98515.49
2018-03-04T04:10:52.589Z,98512.23
2018-03-04T04:13:20.010Z,98519.48
2018-03-04T04:15:47.445Z,98519.18
2018-03-04T04:18:14.866Z,98520.02
2018-03-04T04:20:42.287Z,98516.97
2018-03-04T04:23:09.714Z,98514.03
2018-03-04T04:25:37.166Z,98509.97
2018-03-04T04:28:04.589Z,98507.50
2018-03-04T04:30:32.014Z,98506.18
2018-03-04T04:32:59.429Z,98506.09
2018-03-04T04:35:26.858Z,98506.28
2018-03-04T04:37:54.285Z,98501.02
2018-03-04T04:40:21.706Z,98504.47
2018-03-04T04:42:49.125Z,98506.39
2018-03-04T04:45:16.553Z,98503.34
2018-03-04T04:47:43.969Z,98504.37
2018-03-04T04:50:11.399Z,98501.27
2018-03-04T04:52:38.829Z,98499.87
2018-03-04T04:55:06.257Z,98500.23
2018-03-04T04:57:33.674Z,98513.69
2018-03-04T05:00:01.354Z,98510.12
2018-03-04T05:02:28.778Z,98510.20
2018-03-04T05:04:56.201Z,98502.62
2018-03-04T05:07:23.626Z,98510.37
2018-03-04T05:09:51.050Z,98509.63
2018-03-04T05:12:18.481Z,98509.14
2018-03-04T05:14:45.919Z,98505.06
2018-03-04T05:17:13.344Z,98512.36
2018-03-04T05:19:40.762Z,98517.69
2018-03-04T05:22:08.185Z,98521.86
2018-03-04T05:24:35.619Z,98519.29
2018-03-04T05:27:03.037Z,98511.81
2018-03-04T05:29:30.466Z,98510.37
2018-03-04T05:31:57.887Z,98510.38
2018-03-04T05:34:25.341Z,98510.00
2018-03-04T05:36:52.726Z,98511.02
2018-03-04T05:39:20.154Z,98507.91
2018-03-04T05:41:47.582Z,98512.34
2018-03-04T05:44:15.014Z,98513.78
2018-03-04T05:46:42.446Z,98526.45
2018-03-04T05:49:09.874Z,98530.30
2018-03-04T05:51:38.147Z,98530.73
2018-03-04T05:54:05.570Z,98533.66
2018-03-04T05:56:33.002Z,98533.36
2018-03-04T05:59:00.422Z,98539.02
2018-03-04T06:01:27.851Z,98524.13
2018-03-04T06:03:55.283Z,98526.45
2018-03-04T06:06:22.702Z,98532.19
2018-03-04T06:08:50.122Z,98536.45
2018-03-04T06:11:17.542Z,98530.37
2018-03-04T06:13:45.062Z,98526.48
2018-03-04T06:16:12.497Z,98532.08
2018-03-04T06:18:39.922Z,98536.45
2018-03-04T06:21:07.375Z,98530.38
2018-03-04T06:23:34.790Z,98529.86
2018-03-04T06:26:02.226Z,98535.34
2018-03-04T06:28:29.654Z,98539.78
2018-03-04T06:30:57.082Z,98535.84
2018-03-04T06:33:24.551Z,98541.03
2018-03-04T06:35:51.973Z,98547.09
2018-03-04T06:38:19.401Z,98540.83
2018-03-04T06:40:46.831Z,98545.31
2018-03-04T06:43:14.267Z,98546.70
2018-03-04T06:45:41.678Z,98547.34
2018-03-04T06:48:09.102Z,98541.81
2018-03-04T06:50:36.528Z,98547.06
2018-03-04T06:53:03.946Z,98541.17
2018-03-04T06:55:31.374Z,98549.04
2018-03-04T06:57:58.829Z,98550.56
2018-03-04T07:00:26.205Z,98551.15
2018-03-04T07:02:53.629Z,98551.22
2018-03-04T07:05:21.054Z,98541.67
2018-03-04T07:07:48.473Z,98537.09
2018-03-04T07:10:15.910Z,98539.62
2018-03-04T07:12:43.316Z,98543.75
2018-03-04T07:15:10.745Z,98545.34
2018-03-04T07:17:38.172Z,98537.27
2018-03-04T07:20:05.587Z,98537.46
2018-03-04T07:22:33.025Z,98530.80
2018-03-04T07:25:00.443Z,98532.93
2018-03-04T07:27:27.870Z,98536.73
2018-03-04T07:29:55.417Z,98537.66
2018-03-04T07:32:22.858Z,98540.16
2018-03-04T07:34:50.301Z,98539.53
2018-03-04T07:37:17.745Z,98535.07
2018-03-04T07:39:45.158Z,98541.40
2018-03-04T07:42:12.578Z,98537.98
2018-03-04T07:44:40.007Z,98532.95
2018-03-04T07:47:07.425Z,98539.41
2018-03-04T07:49:34.855Z,98544.16
2018-03-04T07:52:02.267Z,98543.55
2018-03-04T07:54:29.686Z,98552.77
2018-03-04T07:56:57.106Z,98543.24
2018-03-04T07:59:24.521Z,98547.76
2018-03-04T08:01:51.937Z,98544.30
2018-03-04T08:04:19.402Z,98541.05
2018-03-04T08:06:46.834Z,98547.42
2018-03-04T08:09:14.254Z,98551.80
2018-03-04T08:11:41.671Z,98551.78
2018-03-04T08:14:09.106Z,98563.98
2018-03-04T08:16:36.517Z,98562.75
2018-03-04T08:19:03.929Z,98566.30
2018-03-04T08:21:31.345Z,98564.53
2018-03-04T08:23:58.754Z,98566.27
2018-03-04T08:26:38.035Z,98558.80
2018-03-04T08:29:05.442Z,98559.23
2018-03-04T08:31:32.870Z,98555.81
2018-03-04T08:34:00.290Z,98552.47
2018-03-04T08:36:27.704Z,98553.53
2018-03-04T08:38:55.113Z,98552.48
2018-03-04T08:41:22.519Z,98550.00
2018-03-04T08:43:49.927Z,98539.28
2018-03-04T08:46:17.341Z,98547.69
2018-03-04T08:48:44.774Z,98538.51
2018-03-04T08:51:12.173Z,98535.81
2018-03-04T08:53:39.582Z,98525.80
2018-03-04T08:56:07.001Z,98532.98
2018-03-04T08:58:34.407Z,98535.85
2018-03-04T09:01:01.826Z,98540.00
2018-03-04T09:03:29.282Z,98556.05
2018-03-04T09:05:56.648Z,98555.10
2018-03-04T09:08:24.070Z,98548.43
2018-03-04T09:10:51.494Z,98548.48
2018-03-04T09:13:18.936Z,98547.77
2018-03-04T09:15:46.350Z,98551.70
2018-03-04T09:18:13.770Z,98549.83
2018-03-04T09:20:41.180Z,98546.61
2018-03-04T09:23:08.598Z,98547.88
2018-03-04T09:25:36.036Z,98545.43
2018-03-04T09:28:03.430Z,98534.83
2018-03-04T09:30:30.889Z,98537.69
2018-03-04T09:32:58.800Z,98543.07
2018-03-04T09:35:27.609Z,98542.46
2018-03-04T09:37:55.026Z,98543.59
2018-03-04T09:40:22.470Z,98534.88
2018-03-04T09:42:49.886Z,98539.56
2018-03-04T09:45:17.306Z,98535.25
2018-03-04T09:47:45.599Z,98534.44
2018-03-04T09:50:13.026Z,98529.77
2018-03-04T09:52:40.458Z,98537.19
2018-03-04T09:55:09.312Z,98532.95
2018-03-04T09:57:36.809Z,98527.50
2018-03-04T10:00:04.214Z,98526.78
2018-03-04T10:02:31.640Z,98518.32
2018-03-04T10:04:59.058Z,98511.94
2018-03-04T10:07:26.479Z,98504.45
2018-03-04T10:09:53.886Z,98503.83
2018-03-04T10:12:21.291Z,98496.82
2018-03-04T10:14:48.714Z,98500.55
2018-03-04T10:17:16.145Z,98498.80
2018-03-04T10:19:43.564Z,98494.20
2018-03-04T10:22:10.991Z,98490.14
2018-03-04T10:24:38.466Z,98483.66
2018-03-04T10:27:05.862Z,98481.55
2018-03-04T10:29:33.371Z,98481.75
2018-03-04T10:32:00.785Z,98479.59
2018-03-04T10:34:28.218Z,98484.07
2018-03-04T10:36:55.739Z,98476.63
2018-03-04T10:39:23.153Z,98482.09
2018-03-04T10:41:50.565Z,98479.78
2018-03-04T10:44:18.040Z,98471.42
2018-03-04T10:46:45.457Z,98474.95
2018-03-04T10:49:12.867Z,98474.27
2018-03-04T10:51:40.278Z,98476.33
2018-03-04T10:54:07.810Z,98469.16
2018-03-04T10:56:35.258Z,98473.16
2018-03-04T10:59:02.678Z,98474.38
2018-03-04T11:01:35.686Z,98473.20
2018-03-04T11:04:03.103Z,98467.11
2018-03-04T11:06:30.542Z,98468.11
2018-03-04T11:08:58.842Z,98475.30
2018-03-04T11:11:26.302Z,98466.55
2018-03-04T11:13:53.721Z,98454.66
2018-03-04T11:16:21.130Z,98449.81
2018-03-04T11:18:49.544Z,98458.58
2018-03-04T11:21:17.062Z,98460.74
2018-03-04T11:23:44.486Z,98454.64
2018-03-04T11:26:11.906Z,98451.77
2018-03-04T11:28:39.341Z,98461.37
2018-03-04T11:31:06.826Z,98453.30
2018-03-04T11:33:34.233Z,98456.88
2018-03-04T11:36:01.646Z,98452.55
2018-03-04T11:38:29.058Z,98446.27
2018-03-04T11:40:56.497Z,98446.61
2018-03-04T11:43:23.902Z,98438.72
2018-03-04T11:45:51.319Z,98431.25
2018-03-04T11:48:18.736Z,98429.47
2018-03-04T11:50:46.149Z,98422.38
2018-03-04T11:53:13.585Z,98418.08
2018-03-04T11:55:41.197Z,98421.31
2018-03-04T11:58:08.616Z,98418.77
2018-03-04T12:00:36.166Z,98413.16
2018-03-04T12:03:03.584Z,98412.38
2018-03-04T12:05:30.998Z,98401.70
2018-03-04T12:07:58.409Z,98395.28
2018-03-04T12:10:25.830Z,98391.91
2018-03-04T12:12:53.243Z,98388.25
2018-03-04T12:15:20.674Z,98384.69
2018-03-04T12:17:48.142Z,98386.09
2018-03-04T12:20:15.562Z,98383.56
2018-03-04T12:22:42.983Z,98377.84
2018-03-04T12:25:10.401Z,98368.61
2018-03-04T12:27:37.828Z,98365.47
2018-03-04T12:30:05.225Z,98358.87
2018-03-04T12:32:32.654Z,98353.89
2018-03-04T12:35:00.063Z,98348.17
2018-03-04T12:37:27.483Z,98347.20
2018-03-04T12:39:54.889Z,98343.80
2018-03-04T12:42:22.313Z,98342.16
2018-03-04T12:44:49.725Z,98341.59
2018-03-04T12:47:17.142Z,98342.16
2018-03-04T12:49:44.562Z,98335.83
2018-03-04T12:52:11.965Z,98334.95
2018-03-04T12:54:39.389Z,98327.62
2018-03-04T12:57:06.803Z,98311.72
2018-03-04T12:59:34.217Z,98318.89
2018-03-04T13:02:01.630Z,98315.28
2018-03-04T13:04:29.049Z,98322.52
2018-03-04T13:06:56.457Z,98314.77
2018-03-04T13:09:23.876Z,98319.47
2018-03-04T13:11:51.294Z,98310.36
2018-03-04T13:14:18.710Z,98319.19
2018-03-04T13:16:46.131Z,98312.89
2018-03-04T13:19:13.554Z,98304.87
2018-03-04T13:21:40.993Z,98304.41
2018-03-04T13:24:09.182Z,98302.72
2018-03-04T13:26:36.605Z,98296.16
2018-03-04T13:29:04.022Z,98286.83
2018-03-04T13:31:31.426Z,98291.34
2018-03-04T13:33:58.838Z,98292.77
2018-03-04T13:36:26.469Z,98290.64
2018-03-04T13:38:53.886Z,98291.15
2018-03-04T13:41:22.225Z,98283.27
2018-03-04T13:43:49.898Z,98282.81
2018-03-04T13:46:17.305Z,98278.59
2018-03-04T13:48:44.981Z,98283.52
2018-03-04T13:51:12.394Z,98278.73
2018-03-04T13:53:39.818Z,98277.56
2018-03-04T13:56:07.346Z,98273.84
2018-03-04T13:58:34.754Z,98276.75
2018-03-04T14:01:02.193Z,98262.94
2018-03-04T14:03:29.601Z,98271.05
2018-03-04T14:05:57.017Z,98265.88
2018-03-04T14:08:24.513Z,98269.02
2018-03-04T14:10:51.958Z,98263.87
2018-03-04T14:13:19.415Z,98260.41
2018-03-04T14:15:46.829Z,98263.61
2018-03-04T14:18:14.246Z,98259.53
2018-03-04T14:20:41.660Z,98254.87
2018-03-04T14:23:09.081Z,98259.05
2018-03-04T14:25:36.531Z,98267.84
2018-03-04T14:28:03.957Z,98262.86
2018-03-04T14:30:31.371Z,98264.02
2018-03-04T14:32:59.313Z,98259.77
2018-03-04T14:35:26.729Z,98267.60
2018-03-04T14:37:54.161Z,98262.69
2018-03-04T14:40:21.585Z,98259.44
2018-03-04T14:42:49.077Z,98253.47
2018-03-04T14:45:16.527Z,98256.70
2018-03-04T14:47:43.938Z,98249.49
2018-03-04T14:50:11.366Z,98242.14
2018-03-04T14:52:40.294Z,98240.97
2018-03-04T14:55:07.722Z,98230.02
2018-03-04T14:57:35.137Z,98229.73
2018-03-04T15:00:02.553Z,98224.95
2018-03-04T15:02:29.971Z,98211.22
2018-03-04T15:04:57.381Z,98197.31
2018-03-04T15:07:24.793Z,98187.17
2018-03-04T15:09:52.206Z,98189.59
2018-03-04T15:12:19.623Z,98179.30
2018-03-04T15:14:47.042Z,98171.41
2018-03-04T15:17:14.453Z,98180.09
2018-03-04T15:19:41.869Z,98192.11
2018-03-04T15:22:09.290Z,98191.31
2018-03-04T15:24:36.698Z,98188.83
2018-03-04T15:27:04.110Z,98184.02
2018-03-04T15:29:31.526Z,98184.56
2018-03-04T15:31:58.937Z,98184.97
2018-03-04T15:34:26.367Z,98185.35
2018-03-04T15:36:53.765Z,98176.97
2018-03-04T15:39:21.182Z,98174.05
2018-03-04T15:41:48.594Z,98172.44
2018-03-04T15:44:16.090Z,98174.83
2018-03-04T15:46:43.519Z,98172.30
2018-03-04T15:49:10.954Z,98174.55
2018-03-04T15:51:38.452Z,98180.69
2018-03-04T15:54:06.782Z,98170.55
2018-03-04T15:56:34.200Z,98173.89
2018-03-04T15:59:01.673Z,98173.88
2018-03-04T16:01:29.099Z,98177.58
2018-03-04T16:03:56.509Z,98169.03
2018-03-04T16:06:23.930Z,98165.42
2018-03-04T16:08:51.349Z,98156.59
2018-03-04T16:11:19.171Z,98159.53
2018-03-04T16:13:46.629Z,98154.04
2018-03-04T16:16:14.055Z,98150.43
2018-03-04T16:18:41.479Z,98149.65
2018-03-04T16:21:09.002Z,98148.31
2018-03-04T16:23:36.458Z,98156.97
2018-03-04T16:26:03.877Z,98151.91
2018-03-04T16:28:31.285Z,98143.63
2018-03-04T16:30:58.741Z,98135.91
2018-03-04T16:33:26.207Z,98133.48
2018-03-04T16:35:53.626Z,98134.84
2018-03-04T16:38:21.079Z,98136.55
2018-03-04T16:40:48.547Z,98130.95
2018-03-04T16:43:16.069Z,98137.27
2018-03-04T16:45:43.497Z,98142.86
2018-03-04T16:48:10.913Z,98135.13
2018-03-04T16:50:38.342Z,98132.45
2018-03-04T16:53:05.761Z,98132.41
2018-03-04T16:55:33.173Z,98130.67
2018-03-04T16:58:00.597Z,98131.33
2018-03-04T17:00:28.022Z,98122.40
2018-03-04T17:02:55.749Z,98126.22
2018-03-04T17:05:23.171Z,98131.25
2018-03-04T17:07:50.594Z,98135.95
2018-03-04T17:10:18.013Z,98137.56
2018-03-04T17:12:45.441Z,98150.16
2018-03-04T17:15:12.867Z,98160.95
2018-03-04T17:17:40.279Z,98165.83
2018-03-04T17:20:07.701Z,98176.74
2018-03-04T17:22:35.101Z,98165.87
2018-03-04T17:25:02.523Z,98160.69
2018-03-04T17:27:30.028Z,98148.71
2018-03-04T17:29:57.439Z,98099.59
2018-03-04T17:32:24.855Z,98089.23
2018-03-04T17:34:52.270Z,98081.73
2018-03-04T17:37:19.751Z,98079.98
2018-03-04T17:39:47.094Z,98074.38
2018-03-04T17:42:14.517Z,98071.14
2018-03-04T17:44:41.927Z,98071.52
2018-03-04T17:47:09.362Z,98076.34
2018-03-04T17:49:36.771Z,98074.14
2018-03-04T17:52:04.214Z,98077.86
2018-03-04T17:54:31.616Z,98079.45
2018-03-04T17:56:59.026Z,98071.38
2018-03-04T17:59:26.456Z,98076.42
2018-03-04T18:01:53.861Z,98077.59
2018-03-04T18:04:21.278Z,98079.70
2018-03-04T18:06:48.690Z,98088.52
2018-03-04T18:09:16.146Z,98087.30
2018-03-04T18:11:43.550Z,98093.94
2018-03-04T18:14:10.958Z,98104.02
2018-03-04T18:16:38.383Z,98107.46
2018-03-04T18:19:05.798Z,98102.63
2018-03-04T18:21:33.245Z,98106.78
2018-03-04T18:24:00.658Z,98098.19
2018-03-04T18:26:28.066Z,98100.58
2018-03-04T18:28:55.470Z,98105.79
2018-03-04T18:31:22.886Z,98111.85
2018-03-04T18:33:50.303Z,98118.22
2018-03-04T18:36:17.706Z,98117.59
2018-03-04T18:38:45.205Z,98116.41
2018-03-04T18:41:12.635Z,98119.64
2018-03-04T18:43:40.047Z,98115.39
2018-03-04T18:46:07.449Z,98114.16
2018-03-04T18:48:34.866Z,98108.48
2018-03-04T18:51:02.301Z,98090.66
2018-03-04T18:53:29.715Z,98077.96
2018-03-04T18:55:57.145Z,98071.33
2018-03-04T18:58:24.570Z,98061.72
2018-03-04T19:00:51.978Z,98051.67
2018-03-04T19:03:19.390Z,98043.19
2018-03-04T19:05:47.686Z,98026.72
2018-03-04T19:08:15.098Z,98031.72
2018-03-04T19:10:42.509Z,98037.23
2018-03-04T19:13:09.974Z,98024.70
2018-03-04T19:15:37.444Z,98030.23
2018-03-04T19:18:04.932Z,98019.78
2018-03-04T19:20:32.371Z,98012.59
2018-03-04T19:23:00.319Z,98015.35
2018-03-04T19:25:27.726Z,98014.06
2018-03-04T19:27:55.134Z,98012.02
2018-03-04T19:30:22.577Z,98012.05
2018-03-04T19:32:49.981Z,98019.23
2018-03-04T19:35:17.393Z,98012.50
2018-03-04T19:37:44.825Z,98007.35
2018-03-04T19:40:12.254Z,97999.73
2018-03-04T19:42:39.673Z,97996.98
2018-03-04T19:45:07.079Z,97991.70
2018-03-04T19:47:34.495Z,97989.92
2018-03-04T19:50:01.996Z,97983.56
2018-03-04T19:52:29.420Z,97979.41
2018-03-04T19:54:56.830Z,97988.91
2018-03-04T19:57:24.273Z,97985.50
2018-03-04T19:59:51.678Z,98004.80
2018-03-04T20:02:19.106Z,97996.25
2018-03-04T20:04:46.522Z,98000.48
2018-03-04T20:07:13.935Z,98004.97
2018-03-04T20:09:41.351Z,98017.60
2018-03-04T20:12:08.758Z,98012.77
2018-03-04T20:14:36.180Z,98016.44
2018-03-04T20:17:03.592Z,98014.33
2018-03-04T20:19:31.000Z,98018.38
2018-03-04T20:21:58.406Z,98015.08
2018-03-04T20:24:25.864Z,98018.79
2018-03-04T20:26:53.339Z,98025.19
2018-03-04T20:29:20.774Z,98035.27
2018-03-04T20:31:48.280Z,98031.55
2018-03-04T20:34:15.723Z,98037.16
2018-03-04T20:36:43.125Z,98039.04
2018-03-04T20:39:10.542Z,98036.77
2018-03-04T20:41:37.952Z,98036.66
2018-03-04T20:44:06.234Z,98027.20
2018-03-04T20:46:33.648Z,98007.83
2018-03-04T20:49:01.058Z,98011.81
2018-03-04T20:51:28.465Z,98009.30
2018-03-04T20:53:55.882Z,97996.63
2018-03-04T20:56:23.290Z,98019.61
2018-03-04T20:58:50.706Z,98037.72
2018-03-04T21:01:18.130Z,98047.28
2018-03-04T21:03:45.529Z,98049.84
2018-03-04T21:06:12.961Z,98058.24
2018-03-04T21:08:40.386Z,98057.63
2018-03-04T21:11:07.789Z,98068.62
2018-03-04T21:13:35.209Z,98075.58
2018-03-04T21:16:02.618Z,98077.45
2018-03-04T21:18:30.069Z,98093.80
2018-03-04T21:20:57.437Z,98093.02
2018-03-04T21:23:24.865Z,98108.85
2018-03-04T21:25:52.274Z,98115.31
2018-03-04T21:28:19.682Z,98116.98
2018-03-04T21:30:47.095Z,98119.98
2018-03-04T21:33:14.502Z,98119.58
2018-03-04T21:35:41.928Z,98130.60
2018-03-04T21:38:09.333Z,98135.43
2018-03-04T21:40:36.761Z,98126.03
2018-03-04T21:43:04.173Z,98132.50
2018-03-04T21:45:31.574Z,98127.36
2018-03-04T21:47:59.006Z,98123.56
2018-03-04T21:50:26.440Z,98131.84
2018-03-04T21:52:53.857Z,98131.23
2018-03-04T21:55:21.270Z,98130.78
2018-03-04T21:57:48.686Z,98140.72
2018-03-04T22:00:16.106Z,98131.70
2018-03-04T22:02:43.538Z,98134.05
2018-03-04T22:05:10.938Z,98135.22
2018-03-04T22:07:38.350Z,98140.94
2018-03-04T22:10:05.761Z,98142.23
2018-03-04T22:12:33.166Z,98144.82
2018-03-04T22:15:00.577Z,98145.36
2018-03-04T22:17:27.997Z,98157.14
2018-03-04T22:19:55.398Z,98150.51
2018-03-04T22:22:22.810Z,98158.74
2018-03-04T22:24:50.222Z,98166.27
2018-03-04T22:27:17.638Z,98168.51
2018-03-04T22:29:45.046Z,98171.63
2018-03-04T22:32:12.462Z,98184.91
2018-03-04T22:34:39.889Z,98183.88
2018-03-04T22:37:07.298Z,98195.61
2018-03-04T22:39:34.727Z,98192.54
2018-03-04T22:42:02.261Z,98199.73
2018-03-04T22:44:29.676Z,98194.97
2018-03-04T22:46:57.087Z,98205.14
2018-03-04T22:49:24.505Z,98210.59
2018-03-04T22:51:51.907Z,98218.15
2018-03-04T22:54:19.313Z,98224.70
2018-03-04T22:56:46.731Z,98233.72
2018-03-04T22:59:14.129Z,98235.33
2018-03-04T23:01:41.550Z,98243.26
2018-03-04T23:04:08.950Z,98248.10
2018-03-04T23:06:36.626Z,98246.27
2018-03-04T23:09:04.034Z,98249.02
2018-03-04T23:11:31.444Z,98255.06
2018-03-04T23:13:58.870Z,98253.23
2018-03-04T23:16:26.290Z,98254.66
2018-03-04T23:18:53.710Z,98252.13
2018-03-04T23:21:21.119Z,98255.89
2018-03-04T23:23:48.533Z,98245.59
2018-03-04T23:26:15.949Z,98254.28
2018-03-04T23:28:43.403Z,98261.05
2018-03-04T23:31:10.774Z,98257.16
2018-03-04T23:33:38.194Z,98260.31
2018-03-04T23:36:05.601Z,98252.17
2018-03-04T23:38:33.014Z,98260.05
2018-03-04T23:41:00.433Z,98266.51
2018-03-04T23:43:27.834Z,98270.22
2018-03-04T23:45:55.245Z,98267.84
2018-03-04T23:48:22.702Z,98269.21
2018-03-04T23:50:50.116Z,98269.52
2018-03-04T23:53:17.531Z,98278.70
2018-03-04T23:55:44.939Z,98275.15
2018-03-04T23:58:12.346Z,98286.41
